sensor_id;sensor_type;location;lat;lon;timestamp;P1;durP1;ratioP1;P2;durP2;ratioP2
22034;SDS011;11181;51.002;4.356;2023-09-30T00:01:57;8.73;;;3.60;;
22034;SDS011;11181;51.002;4.356;2023-09-30T00:04:24;5.57;;;3.80;;
22034;SDS011;11181;51.002;4.356;2023-09-30T00:06:52;6.20;;;3.77;;
22034;SDS011;11181;51.002;4.356;2023-09-30T00:09:20;6.77;;;3.67;;
22034;SDS011;11181;51.002;4.356;2023-09-30T00:11:48;4.93;;;3.77;;
22034;SDS011;11181;51.002;4.356;2023-09-30T00:14:15;7.20;;;4.00;;
22034;SDS011;11181;51.002;4.356;2023-09-30T00:16:42;6.17;;;4.00;;
22034;SDS011;11181;51.002;4.356;2023-09-30T00:19:09;10.23;;;4.37;;
22034;SDS011;11181;51.002;4.356;2023-09-30T00:21:36;5.73;;;3.83;;
22034;SDS011;11181;51.002;4.356;2023-09-30T00:24:03;11.37;;;4.63;;
22034;SDS011;11181;51.002;4.356;2023-09-30T00:26:32;9.17;;;4.50;;
22034;SDS011;11181;51.002;4.356;2023-09-30T00:28:59;9.57;;;4.70;;
22034;SDS011;11181;51.002;4.356;2023-09-30T00:31:29;7.43;;;4.67;;
22034;SDS011;11181;51.002;4.356;2023-09-30T00:33:55;5.67;;;4.03;;
22034;SDS011;11181;51.002;4.356;2023-09-30T00:36:22;7.77;;;4.67;;
22034;SDS011;11181;51.002;4.356;2023-09-30T00:38:49;6.23;;;4.67;;
22034;SDS011;11181;51.002;4.356;2023-09-30T00:41:17;7.50;;;4.20;;
22034;SDS011;11181;51.002;4.356;2023-09-30T00:43:46;9.13;;;4.43;;
22034;SDS011;11181;51.002;4.356;2023-09-30T00:46:16;8.17;;;4.50;;
22034;SDS011;11181;51.002;4.356;2023-09-30T00:48:49;6.53;;;5.03;;
22034;SDS011;11181;51.002;4.356;2023-09-30T00:51:16;7.47;;;4.67;;
22034;SDS011;11181;51.002;4.356;2023-09-30T00:53:43;9.27;;;4.30;;
22034;SDS011;11181;51.002;4.356;2023-09-30T00:56:10;5.93;;;4.10;;
22034;SDS011;11181;51.002;4.356;2023-09-30T00:58:37;8.73;;;4.50;;
22034;SDS011;11181;51.002;4.356;2023-09-30T01:01:06;6.93;;;4.23;;
22034;SDS011;11181;51.002;4.356;2023-09-30T01:03:33;7.67;;;4.87;;
22034;SDS011;11181;51.002;4.356;2023-09-30T01:06:00;6.27;;;5.40;;
22034;SDS011;11181;51.002;4.356;2023-09-30T01:08:27;10.03;;;4.60;;
22034;SDS011;11181;51.002;4.356;2023-09-30T01:10:54;6.37;;;4.43;;
22034;SDS011;11181;51.002;4.356;2023-09-30T01:13:22;9.00;;;4.93;;
22034;SDS011;11181;51.002;4.356;2023-09-30T01:15:49;10.70;;;5.30;;
22034;SDS011;11181;51.002;4.356;2023-09-30T01:18:17;4.60;;;3.80;;
22034;SDS011;11181;51.002;4.356;2023-09-30T01:20:44;7.70;;;5.40;;
22034;SDS011;11181;51.002;4.356;2023-09-30T01:23:12;6.83;;;4.37;;
22034;SDS011;11181;51.002;4.356;2023-09-30T01:25:39;7.47;;;4.10;;
22034;SDS011;11181;51.002;4.356;2023-09-30T01:28:09;9.73;;;4.43;;
22034;SDS011;11181;51.002;4.356;2023-09-30T01:30:35;7.00;;;4.37;;
22034;SDS011;11181;51.002;4.356;2023-09-30T01:33:03;7.87;;;4.60;;
22034;SDS011;11181;51.002;4.356;2023-09-30T01:35:32;8.47;;;4.30;;
22034;SDS011;11181;51.002;4.356;2023-09-30T01:37:59;9.23;;;4.93;;
22034;SDS011;11181;51.002;4.356;2023-09-30T01:40:27;6.73;;;4.57;;
22034;SDS011;11181;51.002;4.356;2023-09-30T01:42:55;10.87;;;4.93;;
22034;SDS011;11181;51.002;4.356;2023-09-30T01:45:22;8.17;;;4.40;;
22034;SDS011;11181;51.002;4.356;2023-09-30T01:47:49;6.67;;;4.53;;
22034;SDS011;11181;51.002;4.356;2023-09-30T01:50:16;7.67;;;3.90;;
22034;SDS011;11181;51.002;4.356;2023-09-30T01:52:43;7.97;;;4.10;;
22034;SDS011;11181;51.002;4.356;2023-09-30T01:55:10;10.87;;;5.03;;
22034;SDS011;11181;51.002;4.356;2023-09-30T01:57:38;9.97;;;4.27;;
22034;SDS011;11181;51.002;4.356;2023-09-30T02:00:06;6.97;;;4.60;;
22034;SDS011;11181;51.002;4.356;2023-09-30T02:02:35;5.27;;;4.07;;
22034;SDS011;11181;51.002;4.356;2023-09-30T02:05:02;7.63;;;4.10;;
22034;SDS011;11181;51.002;4.356;2023-09-30T02:07:30;8.50;;;4.20;;
22034;SDS011;11181;51.002;4.356;2023-09-30T02:09:57;6.27;;;3.77;;
22034;SDS011;11181;51.002;4.356;2023-09-30T02:12:24;7.70;;;4.33;;
22034;SDS011;11181;51.002;4.356;2023-09-30T02:14:54;9.70;;;4.50;;
22034;SDS011;11181;51.002;4.356;2023-09-30T02:17:21;4.83;;;3.60;;
22034;SDS011;11181;51.002;4.356;2023-09-30T02:19:48;8.20;;;3.53;;
22034;SDS011;11181;51.002;4.356;2023-09-30T02:22:15;7.33;;;3.47;;
22034;SDS011;11181;51.002;4.356;2023-09-30T02:24:42;6.97;;;4.10;;
22034;SDS011;11181;51.002;4.356;2023-09-30T02:27:09;6.60;;;4.03;;
22034;SDS011;11181;51.002;4.356;2023-09-30T02:29:36;9.63;;;4.43;;
22034;SDS011;11181;51.002;4.356;2023-09-30T02:32:04;8.63;;;4.27;;
22034;SDS011;11181;51.002;4.356;2023-09-30T02:34:31;6.87;;;4.10;;
22034;SDS011;11181;51.002;4.356;2023-09-30T02:36:58;5.77;;;3.53;;
22034;SDS011;11181;51.002;4.356;2023-09-30T02:39:25;7.30;;;4.20;;
22034;SDS011;11181;51.002;4.356;2023-09-30T02:41:52;8.80;;;4.50;;
22034;SDS011;11181;51.002;4.356;2023-09-30T02:44:19;7.10;;;4.03;;
22034;SDS011;11181;51.002;4.356;2023-09-30T02:46:46;7.83;;;4.30;;
22034;SDS011;11181;51.002;4.356;2023-09-30T02:49:14;10.80;;;5.07;;
22034;SDS011;11181;51.002;4.356;2023-09-30T02:51:41;6.30;;;3.83;;
22034;SDS011;11181;51.002;4.356;2023-09-30T02:54:09;10.97;;;5.53;;
22034;SDS011;11181;51.002;4.356;2023-09-30T02:56:40;10.00;;;5.33;;
22034;SDS011;11181;51.002;4.356;2023-09-30T02:59:07;10.00;;;4.87;;
22034;SDS011;11181;51.002;4.356;2023-09-30T03:01:35;9.53;;;4.73;;
22034;SDS011;11181;51.002;4.356;2023-09-30T03:04:02;9.30;;;5.50;;
22034;SDS011;11181;51.002;4.356;2023-09-30T03:06:33;8.90;;;5.17;;
22034;SDS011;11181;51.002;4.356;2023-09-30T03:09:01;10.80;;;6.07;;
22034;SDS011;11181;51.002;4.356;2023-09-30T03:11:29;14.90;;;5.33;;
22034;SDS011;11181;51.002;4.356;2023-09-30T03:13:56;9.77;;;4.90;;
22034;SDS011;11181;51.002;4.356;2023-09-30T03:16:23;14.80;;;5.17;;
22034;SDS011;11181;51.002;4.356;2023-09-30T03:18:50;9.73;;;5.80;;
22034;SDS011;11181;51.002;4.356;2023-09-30T03:21:17;10.00;;;5.40;;
22034;SDS011;11181;51.002;4.356;2023-09-30T03:23:46;12.73;;;5.63;;
22034;SDS011;11181;51.002;4.356;2023-09-30T03:26:13;13.67;;;5.90;;
22034;SDS011;11181;51.002;4.356;2023-09-30T03:28:40;10.17;;;5.93;;
22034;SDS011;11181;51.002;4.356;2023-09-30T03:31:07;10.63;;;5.07;;
22034;SDS011;11181;51.002;4.356;2023-09-30T03:33:36;12.63;;;5.43;;
22034;SDS011;11181;51.002;4.356;2023-09-30T03:36:04;17.23;;;6.13;;
22034;SDS011;11181;51.002;4.356;2023-09-30T03:38:34;11.90;;;5.87;;
22034;SDS011;11181;51.002;4.356;2023-09-30T03:41:02;15.03;;;6.77;;
22034;SDS011;11181;51.002;4.356;2023-09-30T03:43:33;11.53;;;5.87;;
22034;SDS011;11181;51.002;4.356;2023-09-30T03:46:02;9.53;;;6.10;;
22034;SDS011;11181;51.002;4.356;2023-09-30T03:48:29;12.10;;;6.90;;
22034;SDS011;11181;51.002;4.356;2023-09-30T03:50:57;14.37;;;5.80;;
22034;SDS011;11181;51.002;4.356;2023-09-30T03:53:33;13.43;;;6.37;;
22034;SDS011;11181;51.002;4.356;2023-09-30T03:56:01;12.07;;;6.33;;
22034;SDS011;11181;51.002;4.356;2023-09-30T03:58:29;14.53;;;7.13;;
22034;SDS011;11181;51.002;4.356;2023-09-30T04:00:56;14.43;;;6.77;;
22034;SDS011;11181;51.002;4.356;2023-09-30T04:03:23;12.07;;;6.50;;
22034;SDS011;11181;51.002;4.356;2023-09-30T04:05:50;10.57;;;6.20;;
22034;SDS011;11181;51.002;4.356;2023-09-30T04:08:17;16.43;;;7.17;;
22034;SDS011;11181;51.002;4.356;2023-09-30T04:10:47;12.57;;;6.77;;
22034;SDS011;11181;51.002;4.356;2023-09-30T04:13:15;11.33;;;5.90;;
22034;SDS011;11181;51.002;4.356;2023-09-30T04:15:44;11.97;;;6.93;;
22034;SDS011;11181;51.002;4.356;2023-09-30T04:18:12;14.53;;;6.70;;
22034;SDS011;11181;51.002;4.356;2023-09-30T04:20:39;16.13;;;7.37;;
22034;SDS011;11181;51.002;4.356;2023-09-30T04:23:06;14.67;;;7.67;;
22034;SDS011;11181;51.002;4.356;2023-09-30T04:25:35;11.70;;;7.57;;
22034;SDS011;11181;51.002;4.356;2023-09-30T04:28:02;12.17;;;6.77;;
22034;SDS011;11181;51.002;4.356;2023-09-30T04:30:31;12.17;;;7.13;;
22034;SDS011;11181;51.002;4.356;2023-09-30T04:32:58;13.57;;;7.00;;
22034;SDS011;11181;51.002;4.356;2023-09-30T04:35:25;13.60;;;7.00;;
22034;SDS011;11181;51.002;4.356;2023-09-30T04:37:55;15.87;;;6.97;;
22034;SDS011;11181;51.002;4.356;2023-09-30T04:40:26;14.60;;;6.80;;
22034;SDS011;11181;51.002;4.356;2023-09-30T04:42:54;10.87;;;6.43;;
22034;SDS011;11181;51.002;4.356;2023-09-30T04:45:23;12.80;;;6.43;;
22034;SDS011;11181;51.002;4.356;2023-09-30T04:47:52;11.27;;;6.67;;
22034;SDS011;11181;51.002;4.356;2023-09-30T04:50:21;13.10;;;6.40;;
22034;SDS011;11181;51.002;4.356;2023-09-30T04:52:49;12.87;;;6.03;;
22034;SDS011;11181;51.002;4.356;2023-09-30T04:55:17;10.63;;;6.33;;
22034;SDS011;11181;51.002;4.356;2023-09-30T04:57:44;14.80;;;7.33;;
22034;SDS011;11181;51.002;4.356;2023-09-30T05:00:13;20.77;;;6.87;;
22034;SDS011;11181;51.002;4.356;2023-09-30T05:02:40;15.03;;;7.87;;
22034;SDS011;11181;51.002;4.356;2023-09-30T05:05:11;15.87;;;7.20;;
22034;SDS011;11181;51.002;4.356;2023-09-30T05:07:38;14.57;;;7.17;;
22034;SDS011;11181;51.002;4.356;2023-09-30T05:10:05;12.70;;;7.47;;
22034;SDS011;11181;51.002;4.356;2023-09-30T05:12:35;20.73;;;8.03;;
22034;SDS011;11181;51.002;4.356;2023-09-30T05:15:03;14.70;;;7.43;;
22034;SDS011;11181;51.002;4.356;2023-09-30T05:17:31;14.87;;;7.30;;
22034;SDS011;11181;51.002;4.356;2023-09-30T05:19:58;14.53;;;7.77;;
22034;SDS011;11181;51.002;4.356;2023-09-30T05:22:26;17.40;;;7.83;;
22034;SDS011;11181;51.002;4.356;2023-09-30T05:24:55;20.10;;;7.23;;
22034;SDS011;11181;51.002;4.356;2023-09-30T05:27:22;10.80;;;6.70;;
22034;SDS011;11181;51.002;4.356;2023-09-30T05:29:49;16.97;;;8.20;;
22034;SDS011;11181;51.002;4.356;2023-09-30T05:32:16;13.33;;;7.17;;
22034;SDS011;11181;51.002;4.356;2023-09-30T05:34:43;19.27;;;8.70;;
22034;SDS011;11181;51.002;4.356;2023-09-30T05:37:10;15.23;;;8.00;;
22034;SDS011;11181;51.002;4.356;2023-09-30T05:39:39;13.33;;;6.63;;
22034;SDS011;11181;51.002;4.356;2023-09-30T05:42:06;13.83;;;7.50;;
22034;SDS011;11181;51.002;4.356;2023-09-30T05:44:33;19.77;;;8.30;;
22034;SDS011;11181;51.002;4.356;2023-09-30T05:47:00;18.20;;;8.03;;
22034;SDS011;11181;51.002;4.356;2023-09-30T05:49:26;14.13;;;6.50;;
22034;SDS011;11181;51.002;4.356;2023-09-30T05:51:53;12.47;;;7.03;;
22034;SDS011;11181;51.002;4.356;2023-09-30T05:54:20;16.10;;;8.63;;
22034;SDS011;11181;51.002;4.356;2023-09-30T05:56:49;18.57;;;7.90;;
22034;SDS011;11181;51.002;4.356;2023-09-30T05:59:16;17.83;;;7.33;;
22034;SDS011;11181;51.002;4.356;2023-09-30T06:01:43;11.90;;;6.83;;
22034;SDS011;11181;51.002;4.356;2023-09-30T06:04:11;16.00;;;8.57;;
22034;SDS011;11181;51.002;4.356;2023-09-30T06:06:44;13.90;;;6.73;;
22034;SDS011;11181;51.002;4.356;2023-09-30T06:09:14;16.63;;;7.33;;
22034;SDS011;11181;51.002;4.356;2023-09-30T06:11:41;12.80;;;7.37;;
22034;SDS011;11181;51.002;4.356;2023-09-30T06:14:09;14.60;;;6.97;;
22034;SDS011;11181;51.002;4.356;2023-09-30T06:16:43;15.17;;;7.50;;
22034;SDS011;11181;51.002;4.356;2023-09-30T06:19:10;13.87;;;6.97;;
22034;SDS011;11181;51.002;4.356;2023-09-30T06:21:37;12.90;;;6.17;;
22034;SDS011;11181;51.002;4.356;2023-09-30T06:24:05;14.53;;;7.00;;
22034;SDS011;11181;51.002;4.356;2023-09-30T06:26:32;14.83;;;7.53;;
22034;SDS011;11181;51.002;4.356;2023-09-30T06:28:59;17.27;;;6.57;;
22034;SDS011;11181;51.002;4.356;2023-09-30T06:31:27;11.73;;;5.97;;
22034;SDS011;11181;51.002;4.356;2023-09-30T06:33:54;17.10;;;6.00;;
22034;SDS011;11181;51.002;4.356;2023-09-30T06:36:23;14.33;;;6.43;;
22034;SDS011;11181;51.002;4.356;2023-09-30T06:38:50;14.30;;;6.57;;
22034;SDS011;11181;51.002;4.356;2023-09-30T06:41:17;11.83;;;6.17;;
22034;SDS011;11181;51.002;4.356;2023-09-30T06:43:45;12.17;;;5.53;;
22034;SDS011;11181;51.002;4.356;2023-09-30T06:46:14;19.23;;;6.83;;
22034;SDS011;11181;51.002;4.356;2023-09-30T06:48:43;13.40;;;6.37;;
22034;SDS011;11181;51.002;4.356;2023-09-30T06:51:12;11.00;;;5.63;;
22034;SDS011;11181;51.002;4.356;2023-09-30T06:53:46;13.43;;;5.73;;
22034;SDS011;11181;51.002;4.356;2023-09-30T06:56:13;11.20;;;6.07;;
22034;SDS011;11181;51.002;4.356;2023-09-30T06:58:40;12.50;;;5.53;;
22034;SDS011;11181;51.002;4.356;2023-09-30T07:01:07;13.73;;;6.10;;
22034;SDS011;11181;51.002;4.356;2023-09-30T07:03:34;16.03;;;5.87;;
22034;SDS011;11181;51.002;4.356;2023-09-30T07:06:02;13.00;;;6.20;;
22034;SDS011;11181;51.002;4.356;2023-09-30T07:08:29;13.37;;;6.17;;
22034;SDS011;11181;51.002;4.356;2023-09-30T07:10:56;12.60;;;5.67;;
22034;SDS011;11181;51.002;4.356;2023-09-30T07:13:23;12.37;;;5.30;;
22034;SDS011;11181;51.002;4.356;2023-09-30T07:15:50;14.00;;;5.20;;
22034;SDS011;11181;51.002;4.356;2023-09-30T07:18:17;13.70;;;5.90;;
22034;SDS011;11181;51.002;4.356;2023-09-30T07:20:47;14.17;;;5.00;;
22034;SDS011;11181;51.002;4.356;2023-09-30T07:23:15;10.27;;;5.17;;
22034;SDS011;11181;51.002;4.356;2023-09-30T07:25:42;11.70;;;5.17;;
22034;SDS011;11181;51.002;4.356;2023-09-30T07:28:10;9.63;;;5.77;;
22034;SDS011;11181;51.002;4.356;2023-09-30T07:30:38;14.80;;;4.73;;
22034;SDS011;11181;51.002;4.356;2023-09-30T07:33:05;17.57;;;5.50;;
22034;SDS011;11181;51.002;4.356;2023-09-30T07:35:33;11.03;;;4.23;;
22034;SDS011;11181;51.002;4.356;2023-09-30T07:38:03;13.93;;;5.07;;
22034;SDS011;11181;51.002;4.356;2023-09-30T07:40:32;11.87;;;4.73;;
22034;SDS011;11181;51.002;4.356;2023-09-30T07:42:59;11.77;;;4.07;;
22034;SDS011;11181;51.002;4.356;2023-09-30T07:45:25;10.33;;;4.03;;
22034;SDS011;11181;51.002;4.356;2023-09-30T07:47:53;13.03;;;4.70;;
22034;SDS011;11181;51.002;4.356;2023-09-30T07:50:20;12.90;;;4.33;;
22034;SDS011;11181;51.002;4.356;2023-09-30T07:52:47;16.13;;;4.90;;
22034;SDS011;11181;51.002;4.356;2023-09-30T07:55:17;8.93;;;4.23;;
22034;SDS011;11181;51.002;4.356;2023-09-30T07:57:50;13.70;;;5.00;;
22034;SDS011;11181;51.002;4.356;2023-09-30T08:00:22;14.23;;;4.43;;
22034;SDS011;11181;51.002;4.356;2023-09-30T08:02:53;14.20;;;3.93;;
22034;SDS011;11181;51.002;4.356;2023-09-30T08:05:21;14.13;;;4.77;;
22034;SDS011;11181;51.002;4.356;2023-09-30T08:07:48;9.30;;;3.97;;
22034;SDS011;11181;51.002;4.356;2023-09-30T08:10:15;10.17;;;4.40;;
22034;SDS011;11181;51.002;4.356;2023-09-30T08:12:42;16.50;;;5.17;;
22034;SDS011;11181;51.002;4.356;2023-09-30T08:15:12;14.10;;;4.73;;
22034;SDS011;11181;51.002;4.356;2023-09-30T08:17:39;13.40;;;4.63;;
22034;SDS011;11181;51.002;4.356;2023-09-30T08:20:07;16.20;;;5.40;;
22034;SDS011;11181;51.002;4.356;2023-09-30T08:22:47;13.20;;;4.23;;
22034;SDS011;11181;51.002;4.356;2023-09-30T08:25:20;15.27;;;3.90;;
22034;SDS011;11181;51.002;4.356;2023-09-30T08:27:50;10.93;;;4.13;;
22034;SDS011;11181;51.002;4.356;2023-09-30T08:30:20;17.60;;;4.40;;
22034;SDS011;11181;51.002;4.356;2023-09-30T08:32:47;17.87;;;5.90;;
22034;SDS011;11181;51.002;4.356;2023-09-30T08:35:15;17.63;;;5.00;;
22034;SDS011;11181;51.002;4.356;2023-09-30T08:37:44;14.70;;;4.67;;
22034;SDS011;11181;51.002;4.356;2023-09-30T08:40:11;12.60;;;3.77;;
22034;SDS011;11181;51.002;4.356;2023-09-30T08:42:38;12.97;;;3.97;;
22034;SDS011;11181;51.002;4.356;2023-09-30T08:45:07;16.67;;;4.80;;
22034;SDS011;11181;51.002;4.356;2023-09-30T08:47:40;14.40;;;4.10;;
22034;SDS011;11181;51.002;4.356;2023-09-30T08:50:08;11.03;;;3.83;;
22034;SDS011;11181;51.002;4.356;2023-09-30T08:52:36;10.47;;;4.03;;
22034;SDS011;11181;51.002;4.356;2023-09-30T08:55:05;12.20;;;3.43;;
22034;SDS011;11181;51.002;4.356;2023-09-30T08:57:33;19.17;;;5.63;;
22034;SDS011;11181;51.002;4.356;2023-09-30T09:00:05;14.20;;;3.90;;
22034;SDS011;11181;51.002;4.356;2023-09-30T09:02:36;10.93;;;4.50;;
22034;SDS011;11181;51.002;4.356;2023-09-30T09:05:05;11.07;;;3.57;;
22034;SDS011;11181;51.002;4.356;2023-09-30T09:07:34;9.93;;;3.60;;
22034;SDS011;11181;51.002;4.356;2023-09-30T09:10:04;10.60;;;3.83;;
22034;SDS011;11181;51.002;4.356;2023-09-30T09:12:33;11.50;;;3.22;;
22034;SDS011;11181;51.002;4.356;2023-09-30T09:15:02;10.33;;;3.60;;
22034;SDS011;11181;51.002;4.356;2023-09-30T09:17:41;18.77;;;4.57;;
22034;SDS011;11181;51.002;4.356;2023-09-30T09:20:11;9.90;;;3.70;;
22034;SDS011;11181;51.002;4.356;2023-09-30T09:22:45;8.07;;;3.25;;
22034;SDS011;11181;51.002;4.356;2023-09-30T09:25:12;10.25;;;3.47;;
22034;SDS011;11181;51.002;4.356;2023-09-30T09:27:39;8.73;;;3.57;;
22034;SDS011;11181;51.002;4.356;2023-09-30T09:30:14;13.18;;;4.50;;
22034;SDS011;11181;51.002;4.356;2023-09-30T09:32:51;10.43;;;3.20;;
22034;SDS011;11181;51.002;4.356;2023-09-30T09:35:21;5.63;;;2.72;;
22034;SDS011;11181;51.002;4.356;2023-09-30T09:37:57;6.97;;;3.10;;
22034;SDS011;11181;51.002;4.356;2023-09-30T09:40:25;11.60;;;3.35;;
22034;SDS011;11181;51.002;4.356;2023-09-30T09:42:53;11.68;;;3.47;;
22034;SDS011;11181;51.002;4.356;2023-09-30T09:45:21;13.10;;;3.50;;
22034;SDS011;11181;51.002;4.356;2023-09-30T09:47:49;8.23;;;2.88;;
22034;SDS011;11181;51.002;4.356;2023-09-30T09:50:18;12.25;;;3.35;;
22034;SDS011;11181;51.002;4.356;2023-09-30T09:52:48;15.18;;;3.55;;
22034;SDS011;11181;51.002;4.356;2023-09-30T09:55:16;17.27;;;3.08;;
22034;SDS011;11181;51.002;4.356;2023-09-30T09:57:44;11.18;;;3.30;;
22034;SDS011;11181;51.002;4.356;2023-09-30T10:00:12;10.60;;;4.22;;
22034;SDS011;11181;51.002;4.356;2023-09-30T10:02:41;12.45;;;3.65;;
22034;SDS011;11181;51.002;4.356;2023-09-30T10:05:08;10.98;;;3.70;;
22034;SDS011;11181;51.002;4.356;2023-09-30T10:07:38;8.15;;;2.67;;
22034;SDS011;11181;51.002;4.356;2023-09-30T10:10:12;9.20;;;2.08;;
22034;SDS011;11181;51.002;4.356;2023-09-30T10:12:42;10.55;;;3.25;;
22034;SDS011;11181;51.002;4.356;2023-09-30T10:18:02;12.18;;;3.20;;
22034;SDS011;11181;51.002;4.356;2023-09-30T10:20:32;8.85;;;3.42;;
22034;SDS011;11181;51.002;4.356;2023-09-30T10:25:52;8.90;;;3.63;;
22034;SDS011;11181;51.002;4.356;2023-09-30T10:28:32;7.32;;;2.85;;
22034;SDS011;11181;51.002;4.356;2023-09-30T10:31:09;13.85;;;3.60;;
22034;SDS011;11181;51.002;4.356;2023-09-30T10:36:46;8.18;;;2.53;;
22034;SDS011;11181;51.002;4.356;2023-09-30T10:39:16;7.78;;;2.70;;
22034;SDS011;11181;51.002;4.356;2023-09-30T10:45:41;10.43;;;3.00;;
22034;SDS011;11181;51.002;4.356;2023-09-30T10:51:00;10.52;;;3.08;;
22034;SDS011;11181;51.002;4.356;2023-09-30T10:53:40;8.23;;;2.88;;
22034;SDS011;11181;51.002;4.356;2023-09-30T10:56:08;11.27;;;2.63;;
22034;SDS011;11181;51.002;4.356;2023-09-30T10:58:40;8.70;;;3.30;;
22034;SDS011;11181;51.002;4.356;2023-09-30T11:01:07;15.32;;;3.15;;
22034;SDS011;11181;51.002;4.356;2023-09-30T11:03:34;6.70;;;2.88;;
22034;SDS011;11181;51.002;4.356;2023-09-30T11:06:02;12.35;;;3.10;;
22034;SDS011;11181;51.002;4.356;2023-09-30T11:08:30;9.38;;;2.92;;
22034;SDS011;11181;51.002;4.356;2023-09-30T11:10:58;10.95;;;3.85;;
22034;SDS011;11181;51.002;4.356;2023-09-30T11:13:30;10.13;;;3.25;;
22034;SDS011;11181;51.002;4.356;2023-09-30T11:16:01;10.75;;;3.42;;
22034;SDS011;11181;51.002;4.356;2023-09-30T11:18:29;9.60;;;3.00;;
22034;SDS011;11181;51.002;4.356;2023-09-30T11:21:04;11.38;;;3.25;;
22034;SDS011;11181;51.002;4.356;2023-09-30T11:23:32;12.27;;;3.70;;
22034;SDS011;11181;51.002;4.356;2023-09-30T11:25:59;10.10;;;3.83;;
22034;SDS011;11181;51.002;4.356;2023-09-30T11:28:34;7.50;;;2.85;;
22034;SDS011;11181;51.002;4.356;2023-09-30T11:31:06;8.93;;;2.80;;
22034;SDS011;11181;51.002;4.356;2023-09-30T11:33:46;6.70;;;2.38;;
22034;SDS011;11181;51.002;4.356;2023-09-30T11:36:14;10.00;;;2.78;;
22034;SDS011;11181;51.002;4.356;2023-09-30T11:38:44;7.20;;;2.38;;
22034;SDS011;11181;51.002;4.356;2023-09-30T11:41:12;7.90;;;2.75;;
22034;SDS011;11181;51.002;4.356;2023-09-30T11:43:39;6.93;;;2.50;;
22034;SDS011;11181;51.002;4.356;2023-09-30T11:46:28;7.85;;;3.15;;
22034;SDS011;11181;51.002;4.356;2023-09-30T11:48:58;6.03;;;2.15;;
22034;SDS011;11181;51.002;4.356;2023-09-30T11:51:30;6.78;;;2.40;;
22034;SDS011;11181;51.002;4.356;2023-09-30T11:54:09;6.82;;;2.35;;
22034;SDS011;11181;51.002;4.356;2023-09-30T11:56:36;10.32;;;2.78;;
22034;SDS011;11181;51.002;4.356;2023-09-30T11:59:03;7.78;;;2.35;;
22034;SDS011;11181;51.002;4.356;2023-09-30T12:01:32;8.57;;;3.05;;
22034;SDS011;11181;51.002;4.356;2023-09-30T12:03:58;6.40;;;2.78;;
22034;SDS011;11181;51.002;4.356;2023-09-30T12:06:26;7.35;;;2.75;;
22034;SDS011;11181;51.002;4.356;2023-09-30T12:08:53;8.25;;;2.50;;
22034;SDS011;11181;51.002;4.356;2023-09-30T12:11:19;9.63;;;2.72;;
22034;SDS011;11181;51.002;4.356;2023-09-30T12:13:47;7.65;;;2.28;;
22034;SDS011;11181;51.002;4.356;2023-09-30T12:16:14;7.78;;;2.90;;
22034;SDS011;11181;51.002;4.356;2023-09-30T12:18:43;5.80;;;1.90;;
22034;SDS011;11181;51.002;4.356;2023-09-30T12:21:10;6.28;;;1.85;;
22034;SDS011;11181;51.002;4.356;2023-09-30T12:23:38;7.03;;;2.72;;
22034;SDS011;11181;51.002;4.356;2023-09-30T12:26:05;9.52;;;2.38;;
22034;SDS011;11181;51.002;4.356;2023-09-30T12:28:33;7.93;;;2.50;;
22034;SDS011;11181;51.002;4.356;2023-09-30T12:31:00;9.27;;;2.30;;
22034;SDS011;11181;51.002;4.356;2023-09-30T12:33:29;7.80;;;2.95;;
22034;SDS011;11181;51.002;4.356;2023-09-30T12:35:58;8.35;;;2.47;;
22034;SDS011;11181;51.002;4.356;2023-09-30T12:38:25;5.85;;;2.63;;
22034;SDS011;11181;51.002;4.356;2023-09-30T12:40:53;4.80;;;2.05;;
22034;SDS011;11181;51.002;4.356;2023-09-30T12:43:21;6.55;;;2.45;;
22034;SDS011;11181;51.002;4.356;2023-09-30T12:45:48;8.00;;;2.97;;
22034;SDS011;11181;51.002;4.356;2023-09-30T12:48:15;5.35;;;2.17;;
22034;SDS011;11181;51.002;4.356;2023-09-30T12:50:42;4.57;;;2.38;;
22034;SDS011;11181;51.002;4.356;2023-09-30T12:53:11;8.18;;;2.63;;
22034;SDS011;11181;51.002;4.356;2023-09-30T12:55:38;5.45;;;2.25;;
22034;SDS011;11181;51.002;4.356;2023-09-30T12:58:05;5.45;;;1.98;;
22034;SDS011;11181;51.002;4.356;2023-09-30T13:00:33;10.02;;;2.15;;
22034;SDS011;11181;51.002;4.356;2023-09-30T13:03:01;7.03;;;2.30;;
22034;SDS011;11181;51.002;4.356;2023-09-30T13:05:28;5.85;;;2.28;;
22034;SDS011;11181;51.002;4.356;2023-09-30T13:07:55;6.47;;;2.10;;
22034;SDS011;11181;51.002;4.356;2023-09-30T13:10:24;5.68;;;2.17;;
22034;SDS011;11181;51.002;4.356;2023-09-30T13:12:51;6.22;;;2.10;;
22034;SDS011;11181;51.002;4.356;2023-09-30T13:15:19;6.32;;;2.08;;
22034;SDS011;11181;51.002;4.356;2023-09-30T13:17:46;5.75;;;2.45;;
22034;SDS011;11181;51.002;4.356;2023-09-30T13:20:14;4.90;;;1.98;;
22034;SDS011;11181;51.002;4.356;2023-09-30T13:22:41;3.88;;;1.50;;
22034;SDS011;11181;51.002;4.356;2023-09-30T13:25:08;7.38;;;1.98;;
22034;SDS011;11181;51.002;4.356;2023-09-30T13:27:38;6.70;;;2.17;;
22034;SDS011;11181;51.002;4.356;2023-09-30T13:30:06;4.80;;;2.00;;
22034;SDS011;11181;51.002;4.356;2023-09-30T13:32:35;5.18;;;2.28;;
22034;SDS011;11181;51.002;4.356;2023-09-30T13:35:02;5.55;;;2.08;;
22034;SDS011;11181;51.002;4.356;2023-09-30T13:37:30;5.90;;;1.85;;
22034;SDS011;11181;51.002;4.356;2023-09-30T13:39:58;2.75;;;1.65;;
22034;SDS011;11181;51.002;4.356;2023-09-30T13:42:26;4.65;;;1.50;;
22034;SDS011;11181;51.002;4.356;2023-09-30T13:44:55;4.25;;;2.35;;
22034;SDS011;11181;51.002;4.356;2023-09-30T13:47:23;7.05;;;2.40;;
22034;SDS011;11181;51.002;4.356;2023-09-30T13:49:51;5.70;;;1.90;;
22034;SDS011;11181;51.002;4.356;2023-09-30T13:52:18;5.20;;;1.83;;
22034;SDS011;11181;51.002;4.356;2023-09-30T13:54:45;5.22;;;1.77;;
22034;SDS011;11181;51.002;4.356;2023-09-30T13:57:12;3.53;;;1.70;;
22034;SDS011;11181;51.002;4.356;2023-09-30T13:59:40;4.55;;;1.55;;
22034;SDS011;11181;51.002;4.356;2023-09-30T14:02:09;4.97;;;1.70;;
22034;SDS011;11181;51.002;4.356;2023-09-30T14:04:36;6.07;;;2.55;;
22034;SDS011;11181;51.002;4.356;2023-09-30T14:07:03;6.50;;;1.83;;
22034;SDS011;11181;51.002;4.356;2023-09-30T14:09:33;5.53;;;1.90;;
22034;SDS011;11181;51.002;4.356;2023-09-30T14:12:00;7.35;;;1.80;;
22034;SDS011;11181;51.002;4.356;2023-09-30T14:14:29;6.45;;;1.95;;
22034;SDS011;11181;51.002;4.356;2023-09-30T14:16:57;3.90;;;1.70;;
22034;SDS011;11181;51.002;4.356;2023-09-30T14:19:26;4.57;;;2.00;;
22034;SDS011;11181;51.002;4.356;2023-09-30T14:21:53;7.18;;;2.35;;
22034;SDS011;11181;51.002;4.356;2023-09-30T14:24:21;5.95;;;1.60;;
22034;SDS011;11181;51.002;4.356;2023-09-30T14:26:48;5.45;;;1.50;;
22034;SDS011;11181;51.002;4.356;2023-09-30T14:29:15;9.15;;;2.30;;
22034;SDS011;11181;51.002;4.356;2023-09-30T14:31:42;6.57;;;2.17;;
22034;SDS011;11181;51.002;4.356;2023-09-30T14:34:09;4.45;;;1.70;;
22034;SDS011;11181;51.002;4.356;2023-09-30T14:36:38;3.30;;;1.77;;
22034;SDS011;11181;51.002;4.356;2023-09-30T14:39:05;4.50;;;1.40;;
22034;SDS011;11181;51.002;4.356;2023-09-30T14:41:31;4.20;;;1.73;;
22034;SDS011;11181;51.002;4.356;2023-09-30T14:44:00;5.70;;;2.13;;
22034;SDS011;11181;51.002;4.356;2023-09-30T14:46:28;7.15;;;1.88;;
22034;SDS011;11181;51.002;4.356;2023-09-30T14:48:55;6.45;;;2.25;;
22034;SDS011;11181;51.002;4.356;2023-09-30T14:51:22;4.80;;;1.70;;
22034;SDS011;11181;51.002;4.356;2023-09-30T14:53:50;6.00;;;2.08;;
22034;SDS011;11181;51.002;4.356;2023-09-30T14:56:18;5.25;;;1.60;;
22034;SDS011;11181;51.002;4.356;2023-09-30T14:58:45;4.07;;;1.58;;
22034;SDS011;11181;51.002;4.356;2023-09-30T15:01:12;6.30;;;1.73;;
22034;SDS011;11181;51.002;4.356;2023-09-30T15:03:39;6.65;;;2.05;;